createdAt,value
2022-08-05T00:00:18.693Z,20.06
2022-08-05T00:02:51.816Z,19.98
2022-08-05T00:06:02.958Z,19.95
2022-08-05T00:08:20.057Z,19.91
2022-08-05T00:11:01.386Z,19.91
2022-08-05T00:13:38.954Z,19.93
2022-08-05T00:16:09.538Z,19.93
2022-08-05T00:18:42.151Z,19.92
2022-08-05T00:21:10.777Z,19.90
2022-08-05T00:23:46.365Z,19.84
2022-08-05T00:26:23.303Z,19.83
2022-08-05T00:28:52.097Z,19.83
2022-08-05T00:31:53.427Z,19.83
2022-08-05T00:34:55.423Z,19.83
2022-08-05T00:37:11.837Z,19.80
2022-08-05T00:39:44.381Z,19.80
2022-08-05T00:42:34.358Z,19.79
2022-08-05T00:45:02.506Z,19.80
2022-08-05T00:47:53.487Z,19.80
2022-08-05T00:50:18.421Z,19.81
2022-08-05T00:52:48.668Z,19.77
2022-08-05T00:55:16.571Z,19.74
2022-08-05T00:57:58.226Z,19.72
2022-08-05T01:00:27.782Z,19.72
2022-08-05T01:02:55.974Z,19.71
2022-08-05T01:05:24.231Z,19.70
2022-08-05T01:08:42.111Z,19.69
2022-08-05T01:10:57.958Z,19.69
2022-08-05T01:13:58.457Z,19.69
2022-08-05T01:16:31.756Z,19.68
2022-08-05T01:19:07.634Z,19.71
2022-08-05T01:22:03.500Z,19.66
2022-08-05T01:25:23.452Z,19.65
2022-08-05T01:28:19.194Z,19.65
2022-08-05T01:30:55.332Z,19.64
2022-08-05T01:33:35.453Z,19.58
2022-08-05T01:36:13.198Z,19.57
2022-08-05T01:38:45.226Z,19.49
2022-08-05T01:41:16.070Z,19.52
2022-08-05T01:43:52.450Z,19.48
2022-08-05T01:46:41.926Z,19.48
2022-08-05T01:49:23.646Z,19.45
2022-08-05T01:51:59.675Z,19.44
2022-08-05T01:54:33.327Z,19.43
2022-08-05T01:58:10.895Z,19.40
2022-08-05T01:59:53.836Z,19.33
2022-08-05T02:02:28.323Z,19.32
2022-08-05T02:05:03.072Z,19.32
2022-08-05T02:07:32.190Z,19.32
2022-08-05T02:10:01.636Z,19.22
2022-08-05T02:12:38.343Z,19.24
2022-08-05T02:15:12.189Z,19.27
2022-08-05T02:18:31.604Z,19.30
2022-08-05T02:20:41.312Z,19.30
2022-08-05T02:23:13.535Z,19.28
2022-08-05T02:25:49.339Z,19.25
2022-08-05T02:28:29.229Z,19.27
2022-08-05T02:31:05.970Z,19.25
2022-08-05T02:33:39.400Z,19.27
2022-08-05T02:36:13.534Z,19.29
2022-08-05T02:38:53.680Z,19.26
2022-08-05T02:41:28.409Z,19.23
2022-08-05T02:44:02.883Z,19.22
2022-08-05T02:46:53.384Z,19.20
2022-08-05T02:49:26.888Z,19.18
2022-08-05T02:52:03.717Z,19.17
2022-08-05T02:54:37.213Z,19.19
2022-08-05T02:57:09.912Z,19.15
2022-08-05T02:59:56.275Z,19.00
2022-08-05T03:02:30.147Z,19.02
2022-08-05T03:04:59.678Z,19.01
2022-08-05T03:08:01.007Z,19.00
2022-08-05T03:10:24.528Z,18.99
2022-08-05T03:12:53.896Z,18.98
2022-08-05T03:15:23.780Z,18.97
2022-08-05T03:17:55.861Z,18.96
2022-08-05T03:20:25.668Z,18.98
2022-08-05T03:22:57.335Z,18.96
2022-08-05T03:25:33.904Z,18.95
2022-08-05T03:28:18.495Z,18.92
2022-08-05T03:30:47.671Z,18.95
2022-08-05T03:33:18.115Z,18.96
2022-08-05T03:35:46.435Z,18.87
2022-08-05T03:38:14.708Z,18.85
2022-08-05T03:40:45.287Z,18.84
2022-08-05T03:44:08.956Z,18.85
2022-08-05T03:46:04.551Z,18.88
2022-08-05T03:48:35.114Z,18.90
2022-08-05T03:52:36.906Z,18.90
2022-08-05T03:55:50.982Z,18.88
2022-08-05T03:56:54.663Z,18.85
2022-08-05T03:59:47.042Z,18.85
2022-08-05T04:02:38.532Z,18.86
2022-08-05T04:05:14.238Z,18.82
2022-08-05T04:07:57.730Z,18.82
2022-08-05T04:10:27.851Z,18.76
2022-08-05T04:12:58.990Z,18.73
2022-08-05T04:15:27.851Z,18.74
2022-08-05T04:18:03.388Z,18.77
2022-08-05T04:20:32.867Z,18.79
2022-08-05T04:23:01.570Z,18.80
2022-08-05T04:25:56.543Z,18.84
2022-08-05T04:28:17.433Z,18.83
2022-08-05T04:30:45.528Z,18.80
2022-08-05T04:33:13.694Z,18.82
2022-08-05T04:36:10.900Z,18.78
2022-08-05T04:38:39.157Z,18.80
2022-08-05T04:41:09.496Z,18.85
2022-08-05T04:43:40.689Z,18.87
2022-08-05T04:46:27.858Z,18.86
2022-08-05T04:48:58.666Z,18.89
2022-08-05T04:51:30.556Z,18.92
2022-08-05T04:53:58.567Z,18.93
2022-08-05T04:56:34.568Z,18.97
2022-08-05T04:59:21.512Z,19.01
2022-08-05T05:02:34.889Z,19.04
2022-08-05T05:04:43.919Z,19.04
2022-08-05T05:07:15.807Z,19.07
2022-08-05T05:09:43.960Z,19.08
2022-08-05T05:12:12.392Z,19.11
2022-08-05T05:14:49.182Z,19.13
2022-08-05T05:17:23.708Z,19.12
2022-08-05T05:19:56.504Z,19.11
2022-08-05T05:22:26.885Z,19.08
2022-08-05T05:24:57.302Z,19.06
2022-08-05T05:27:45.349Z,19.07
2022-08-05T05:30:29.485Z,19.08
2022-08-05T05:33:01.218Z,19.12
2022-08-05T05:35:39.508Z,19.16
2022-08-05T05:38:13.105Z,19.20
2022-08-05T05:40:49.476Z,19.21
2022-08-05T05:43:27.918Z,19.23
2022-08-05T05:46:13.798Z,19.26
2022-08-05T05:48:48.355Z,19.28
2022-08-05T05:51:21.212Z,19.30
2022-08-05T05:53:57.504Z,19.35
2022-08-05T05:56:33.110Z,19.38
2022-08-05T05:59:05.081Z,19.43
2022-08-05T06:01:37.654Z,19.49
2022-08-05T06:04:08.166Z,19.56
2022-08-05T06:06:37.647Z,19.59
2022-08-05T06:09:17.654Z,19.60
2022-08-05T06:12:01.336Z,19.63
2022-08-05T06:14:30.485Z,19.71
2022-08-05T06:16:58.512Z,19.86
2022-08-05T06:19:35.013Z,19.99
2022-08-05T06:22:03.977Z,20.11
2022-08-05T06:24:33.456Z,20.21
2022-08-05T06:27:03.950Z,20.34
2022-08-05T06:29:52.097Z,20.40
2022-08-05T06:32:25.393Z,20.53
2022-08-05T06:34:56.084Z,20.61
2022-08-05T06:37:39.462Z,20.73
2022-08-05T06:40:20.511Z,20.86
2022-08-05T06:42:52.206Z,20.92
2022-08-05T06:45:44.072Z,20.99
2022-08-05T06:48:52.623Z,21.17
2022-08-05T06:51:01.102Z,21.27
2022-08-05T06:53:29.527Z,21.32
2022-08-05T06:55:59.992Z,21.44
2022-08-05T06:58:34.765Z,21.39
2022-08-05T07:01:06.978Z,21.45
2022-08-05T07:03:35.589Z,21.57
2022-08-05T07:06:05.674Z,21.64
2022-08-05T07:08:42.145Z,21.79
2022-08-05T07:11:15.502Z,22.10
2022-08-05T07:14:03.806Z,22.18
2022-08-05T07:18:00.931Z,22.23
2022-08-05T07:22:28.405Z,22.32
2022-08-05T07:24:59.007Z,22.40
2022-08-05T07:27:57.993Z,22.53
2022-08-05T07:30:22.211Z,22.59
2022-08-05T07:32:58.627Z,22.62
2022-08-05T07:36:04.399Z,22.66
2022-08-05T07:38:26.490Z,22.60
2022-08-05T07:41:35.245Z,22.54
2022-08-05T07:43:52.704Z,22.60
2022-08-05T07:46:25.508Z,22.62
2022-08-05T07:49:02.006Z,22.70
2022-08-05T07:51:36.888Z,22.76
2022-08-05T07:57:00.725Z,22.73
2022-08-05T08:02:16.117Z,22.98
2022-08-05T08:04:47.338Z,23.05
2022-08-05T08:07:15.854Z,23.14
2022-08-05T08:09:44.062Z,23.25
2022-08-05T08:12:33.540Z,23.31
2022-08-05T08:15:04.404Z,23.25
2022-08-05T08:17:32.988Z,23.17
2022-08-05T08:20:43.336Z,23.12
2022-08-05T08:22:53.166Z,22.93
2022-08-05T08:25:27.006Z,23.09
2022-08-05T08:28:18.886Z,23.10
2022-08-05T08:31:01.435Z,23.16
2022-08-05T08:33:29.330Z,23.19
2022-08-05T08:36:38.261Z,23.25
2022-08-05T08:38:55.359Z,23.30
2022-08-05T08:41:26.101Z,23.38
2022-08-05T08:45:24.434Z,23.55
2022-08-05T08:47:46.955Z,23.49
2022-08-05T08:50:22.688Z,23.50
2022-08-05T08:52:47.428Z,23.57
2022-08-05T08:56:02.462Z,23.63
2022-08-05T08:58:08.789Z,23.61
2022-08-05T09:00:37.443Z,23.52
2022-08-05T09:03:08.277Z,23.47
2022-08-05T09:05:38.334Z,23.43
2022-08-05T09:08:26.540Z,23.40
2022-08-05T09:10:55.321Z,23.39
2022-08-05T09:13:23.662Z,23.50
2022-08-05T09:15:51.928Z,23.64
2022-08-05T09:18:21.724Z,23.66
2022-08-05T09:20:51.302Z,23.68
2022-08-05T09:23:22.017Z,23.77
2022-08-05T09:26:01.718Z,23.88
2022-08-05T09:28:33.789Z,23.88
2022-08-05T09:31:22.593Z,24.01
2022-08-05T09:33:58.684Z,24.19
2022-08-05T09:36:45.822Z,24.23
2022-08-05T09:39:41.249Z,24.28
2022-08-05T09:42:17.608Z,24.23
2022-08-05T09:44:56.849Z,24.18
2022-08-05T09:47:30.674Z,24.12
2022-08-05T09:50:38.759Z,24.03
2022-08-05T09:53:22.949Z,23.90
2022-08-05T09:56:13.142Z,23.88
2022-08-05T09:58:42.344Z,23.83
2022-08-05T10:01:15.617Z,23.82
2022-08-05T10:03:59.439Z,23.68
2022-08-05T10:06:29.501Z,23.68
2022-08-05T10:09:27.680Z,23.70
2022-08-05T10:12:18.609Z,23.71
2022-08-05T10:15:16.424Z,23.66
2022-08-05T10:17:54.459Z,23.65
2022-08-05T10:20:25.146Z,23.71
2022-08-05T10:22:54.824Z,23.80
2022-08-05T10:25:26.571Z,23.89
2022-08-05T10:28:13.723Z,23.91
2022-08-05T10:32:50.893Z,23.90
2022-08-05T10:33:34.258Z,23.85
2022-08-05T10:36:05.904Z,23.86
2022-08-05T10:38:36.795Z,23.92
2022-08-05T10:41:13.846Z,23.97
2022-08-05T10:43:51.970Z,23.98
2022-08-05T10:46:24.050Z,24.07
2022-08-05T10:49:01.506Z,24.14
2022-08-05T10:51:58.304Z,24.21
2022-08-05T10:55:03.035Z,24.23
2022-08-05T10:57:33.921Z,24.19
2022-08-05T11:00:18.241Z,24.16
2022-08-05T11:03:25.145Z,24.16
2022-08-05T11:06:15.407Z,24.18
2022-08-05T11:09:32.437Z,24.17
2022-08-05T11:12:54.270Z,24.17
2022-08-05T11:15:59.995Z,24.19
2022-08-05T11:18:30.063Z,24.10
2022-08-05T11:21:00.205Z,24.08
2022-08-05T11:23:49.871Z,24.03
2022-08-05T11:26:28.771Z,23.97
2022-08-05T11:29:12.245Z,23.91
2022-08-05T11:31:53.979Z,23.82
2022-08-05T11:34:38.325Z,23.75
2022-08-05T11:38:30.027Z,23.70
2022-08-05T11:40:00.634Z,23.59
2022-08-05T11:42:37.963Z,23.53
2022-08-05T11:45:14.420Z,23.43
2022-08-05T11:47:57.455Z,23.30
2022-08-05T11:50:27.193Z,23.18
2022-08-05T11:52:58.537Z,23.04
2022-08-05T11:55:31.706Z,22.87
2022-08-05T11:58:09.839Z,22.76
2022-08-05T12:00:44.057Z,22.67
2022-08-05T12:03:28.447Z,22.60
2022-08-05T12:06:05.910Z,22.52
2022-08-05T12:08:34.990Z,22.47
2022-08-05T12:11:10.387Z,22.38
2022-08-05T12:13:55.867Z,22.32
2022-08-05T12:16:33.222Z,22.25
2022-08-05T12:19:08.438Z,22.21
2022-08-05T12:21:39.365Z,22.16
2022-08-05T12:24:10.570Z,22.08
2022-08-05T12:26:44.122Z,22.02
2022-08-05T12:29:16.406Z,22.00
2022-08-05T12:31:53.761Z,21.98
2022-08-05T12:34:25.875Z,21.93
2022-08-05T12:36:54.545Z,21.84
2022-08-05T12:39:34.294Z,21.84
2022-08-05T12:42:14.929Z,21.79
2022-08-05T12:44:44.588Z,21.75
2022-08-05T12:47:17.228Z,21.63
2022-08-05T12:50:03.228Z,21.64
2022-08-05T12:52:39.116Z,21.60
2022-08-05T12:55:22.649Z,21.54
2022-08-05T12:58:38.672Z,21.54
2022-08-05T13:02:00.181Z,21.48
2022-08-05T13:03:38.965Z,21.45
2022-08-05T13:06:13.653Z,21.43
2022-08-05T13:08:50.595Z,21.40
2022-08-05T13:11:59.830Z,21.40
2022-08-05T13:14:19.790Z,21.40
2022-08-05T13:16:52.835Z,21.40
2022-08-05T13:19:27.810Z,21.41
2022-08-05T13:22:28.299Z,21.39
2022-08-05T13:25:00.665Z,21.39
2022-08-05T13:27:35.507Z,21.41
2022-08-05T13:30:36.021Z,21.38
2022-08-05T13:32:57.578Z,21.38
2022-08-05T13:35:47.543Z,21.37
2022-08-05T13:38:28.516Z,21.35
2022-08-05T13:41:02.723Z,21.32
2022-08-05T13:43:45.759Z,21.26
2022-08-05T13:46:30.628Z,21.17
2022-08-05T13:49:10.575Z,21.13
2022-08-05T13:51:46.210Z,21.09
2022-08-05T13:54:15.992Z,21.10
2022-08-05T13:56:51.543Z,21.08
2022-08-05T13:59:24.098Z,21.02
2022-08-05T14:01:58.414Z,21.01
2022-08-05T14:04:49.967Z,21.01
2022-08-05T14:07:25.498Z,20.96
2022-08-05T14:10:11.757Z,20.94
2022-08-05T14:12:40.171Z,20.96
2022-08-05T14:16:09.088Z,20.98
2022-08-05T14:17:59.897Z,20.99
2022-08-05T14:20:29.550Z,21.01
2022-08-05T14:22:59.223Z,21.02
2022-08-05T14:25:28.016Z,21.01
2022-08-05T14:27:58.394Z,21.02
2022-08-05T14:30:28.172Z,21.02
2022-08-05T14:32:57.041Z,21.02
2022-08-05T14:35:36.274Z,21.00
2022-08-05T14:38:32.683Z,20.98
2022-08-05T14:41:06.855Z,20.94
2022-08-05T14:43:59.106Z,20.93
2022-08-05T14:46:29.045Z,20.90
2022-08-05T14:48:59.030Z,20.89
2022-08-05T14:51:31.561Z,20.88
2022-08-05T14:54:26.870Z,20.87
2022-08-05T14:56:49.374Z,20.86
2022-08-05T14:59:21.224Z,20.86
2022-08-05T15:01:49.851Z,20.87
2022-08-05T15:04:20.735Z,20.85
2022-08-05T15:06:50.247Z,20.85
2022-08-05T15:09:52.026Z,20.85
2022-08-05T15:12:09.431Z,20.81
2022-08-05T15:14:41.451Z,20.75
2022-08-05T15:17:46.869Z,20.74
2022-08-05T15:20:06.104Z,20.71
2022-08-05T15:22:34.180Z,20.71
2022-08-05T15:25:13.859Z,20.71
2022-08-05T15:27:43.034Z,20.72
2022-08-05T15:30:20.649Z,20.69
2022-08-05T15:32:50.625Z,20.67
2022-08-05T15:35:18.793Z,20.63
2022-08-05T15:38:33.028Z,20.64
2022-08-05T15:41:03.432Z,20.66
2022-08-05T15:43:27.336Z,20.68
2022-08-05T15:46:00.473Z,20.70
2022-08-05T15:48:30.091Z,20.70
2022-08-05T15:50:58.311Z,20.69
2022-08-05T15:53:38.396Z,20.71
2022-08-05T15:56:20.332Z,20.71
2022-08-05T15:58:48.806Z,20.71
2022-08-05T16:01:18.956Z,20.71
2022-08-05T16:03:50.856Z,20.71
2022-08-05T16:06:20.767Z,20.70
2022-08-05T16:08:55.317Z,20.67
2022-08-05T16:11:40.046Z,20.66
2022-08-05T16:14:17.414Z,20.63
2022-08-05T16:16:46.243Z,20.61
2022-08-05T16:19:25.887Z,20.60
2022-08-05T16:22:03.318Z,20.58
2022-08-05T16:24:41.131Z,20.55
2022-08-05T16:27:32.094Z,20.51
2022-08-05T16:30:25.533Z,20.48
2022-08-05T16:32:54.998Z,20.44
2022-08-05T16:35:24.845Z,20.39
2022-08-05T16:38:16.768Z,20.33
2022-08-05T16:40:47.897Z,20.25
2022-08-05T16:43:23.739Z,20.17
2022-08-05T16:46:06.566Z,20.13
2022-08-05T16:48:40.751Z,20.07
2022-08-05T16:51:10.413Z,20.04
2022-08-05T16:54:05.727Z,19.98
2022-08-05T16:56:29.456Z,19.92
2022-08-05T16:59:00.953Z,19.84
2022-08-05T17:01:54.805Z,19.80
2022-08-05T17:04:26.594Z,19.74
2022-08-05T17:06:55.554Z,19.75
2022-08-05T17:09:24.824Z,19.73
2022-08-05T17:11:59.340Z,19.74
2022-08-05T17:14:36.707Z,19.73
2022-08-05T17:17:14.261Z,19.74
2022-08-05T17:19:45.607Z,19.75
2022-08-05T17:22:24.544Z,19.77
2022-08-05T17:24:57.957Z,19.76
2022-08-05T17:27:27.524Z,19.76
2022-08-05T17:30:04.722Z,19.78
2022-08-05T17:32:42.117Z,19.79
2022-08-05T17:35:12.271Z,19.81
2022-08-05T17:37:45.095Z,19.82
2022-08-05T17:40:16.281Z,19.82
2022-08-05T17:42:50.859Z,19.85
2022-08-05T17:45:22.998Z,19.83
2022-08-05T17:47:54.977Z,19.81
2022-08-05T17:50:28.358Z,19.80
2022-08-05T17:52:59.496Z,19.78
2022-08-05T17:55:37.548Z,19.80
2022-08-05T17:58:13.227Z,19.80
2022-08-05T18:00:47.485Z,19.78
2022-08-05T18:03:48.393Z,19.77
2022-08-05T18:06:12.783Z,19.79
2022-08-05T18:08:46.201Z,19.76
2022-08-05T18:11:24.368Z,19.78
2022-08-05T18:14:03.691Z,19.76
2022-08-05T18:16:33.878Z,19.75
2022-08-05T18:19:01.877Z,19.75
2022-08-05T18:22:09.645Z,19.76
2022-08-05T18:24:17.838Z,19.75
2022-08-05T18:26:45.813Z,19.77
2022-08-05T18:29:16.900Z,19.76
2022-08-05T18:31:46.694Z,19.77
2022-08-05T18:34:17.754Z,19.77
2022-08-05T18:36:49.968Z,19.73
2022-08-05T18:39:42.346Z,19.71
2022-08-05T18:42:10.980Z,19.70
2022-08-05T18:44:49.229Z,19.68
2022-08-05T18:47:26.713Z,19.64
2022-08-05T18:50:13.221Z,19.62
2022-08-05T18:52:50.505Z,19.59
2022-08-05T18:55:21.493Z,19.56
2022-08-05T18:57:53.459Z,19.54
2022-08-05T19:00:27.242Z,19.48
2022-08-05T19:03:03.197Z,19.40
2022-08-05T19:06:13.415Z,19.36
2022-08-05T19:08:21.679Z,19.28
2022-08-05T19:10:50.038Z,19.23
2022-08-05T19:13:18.059Z,19.17
2022-08-05T19:16:00.090Z,19.17
2022-08-05T19:18:32.714Z,19.13
2022-08-05T19:21:01.140Z,19.06
2022-08-05T19:24:07.482Z,19.01
2022-08-05T19:26:19.816Z,18.92
2022-08-05T19:28:48.004Z,18.89
2022-08-05T19:31:19.505Z,18.82
2022-08-05T19:33:56.466Z,18.77
2022-08-05T19:36:25.543Z,18.72
2022-08-05T19:38:55.087Z,18.64
2022-08-05T19:41:58.410Z,18.61
2022-08-05T19:44:16.604Z,18.54
2022-08-05T19:46:47.306Z,18.50
2022-08-05T19:49:19.687Z,18.48
2022-08-05T19:52:05.070Z,18.48
2022-08-05T19:54:37.015Z,18.45
2022-08-05T19:57:09.604Z,18.44
2022-08-05T19:59:55.807Z,18.44
2022-08-05T20:02:30.445Z,18.39
2022-08-05T20:05:01.110Z,18.40
2022-08-05T20:07:46.394Z,18.39
2022-08-05T20:10:17.108Z,18.36
2022-08-05T20:12:47.496Z,18.35
2022-08-05T20:15:48.706Z,18.30
2022-08-05T20:18:10.287Z,18.27
2022-08-05T20:20:56.377Z,18.24
2022-08-05T20:23:39.929Z,18.21
2022-08-05T20:26:15.203Z,18.19
2022-08-05T20:28:44.897Z,18.19
2022-08-05T20:31:13.034Z,18.18
2022-08-05T20:33:42.500Z,18.19
2022-08-05T20:36:12.399Z,18.16
2022-08-05T20:38:53.510Z,18.14
2022-08-05T20:41:27.498Z,18.13
2022-08-05T20:44:29.232Z,18.07
2022-08-05T20:46:58.862Z,18.05
2022-08-05T20:49:26.942Z,18.04
2022-08-05T20:51:57.662Z,18.03
2022-08-05T20:54:43.127Z,18.02
2022-08-05T20:57:15.187Z,18.00
2022-08-05T21:00:21.390Z,17.99
2022-08-05T21:02:57.168Z,17.99
2022-08-05T21:05:25.900Z,18.00
2022-08-05T21:08:07.381Z,17.93
2022-08-05T21:10:36.104Z,17.93
2022-08-05T21:13:11.026Z,17.90
2022-08-05T21:15:46.099Z,17.90
2022-08-05T21:18:19.116Z,17.88
2022-08-05T21:20:47.092Z,17.87
2022-08-05T21:23:17.091Z,17.86
2022-08-05T21:27:58.497Z,17.79
2022-08-05T21:30:26.503Z,17.77
2022-08-05T21:32:54.493Z,17.78
2022-08-05T21:35:29.794Z,17.78
2022-08-05T21:37:58.553Z,17.78
2022-08-05T21:40:27.038Z,17.78
2022-08-05T21:42:55.540Z,17.76
2022-08-05T21:45:56.895Z,17.77
2022-08-05T21:48:16.663Z,17.74
2022-08-05T21:50:53.030Z,17.70
2022-08-05T21:53:27.032Z,17.69
2022-08-05T21:56:05.354Z,17.65
2022-08-05T21:58:42.152Z,17.63
2022-08-05T22:01:23.981Z,17.58
2022-08-05T22:03:53.687Z,17.55
2022-08-05T22:06:35.301Z,17.56
2022-08-05T22:09:13.997Z,17.52
2022-08-05T22:11:46.753Z,17.50
2022-08-05T22:14:33.083Z,17.50
2022-08-05T22:17:05.379Z,17.48
2022-08-05T22:19:57.534Z,17.42
2022-08-05T22:22:27.749Z,17.40
2022-08-05T22:25:18.872Z,17.36
2022-08-05T22:28:10.786Z,17.34
2022-08-05T22:30:44.109Z,17.32
2022-08-05T22:33:57.819Z,17.32
2022-08-05T22:36:14.775Z,17.29
2022-08-05T22:38:43.264Z,17.28
2022-08-05T22:41:11.242Z,17.24
2022-08-05T22:43:40.698Z,17.23
2022-08-05T22:46:12.249Z,17.22
2022-08-05T22:48:50.230Z,17.18
2022-08-05T22:51:23.274Z,17.17
2022-08-05T22:54:06.799Z,17.16
2022-08-05T22:56:35.138Z,17.13
2022-08-05T22:59:43.966Z,17.11
2022-08-05T23:02:06.019Z,17.09
2022-08-05T23:04:37.356Z,17.10
2022-08-05T23:07:06.937Z,17.06
2022-08-05T23:09:57.611Z,17.05
2022-08-05T23:12:24.453Z,17.03
2022-08-05T23:14:52.801Z,16.99
2022-08-05T23:17:35.086Z,16.98
2022-08-05T23:20:16.732Z,16.92
2022-08-05T23:22:47.324Z,16.86
2022-08-05T23:25:50.059Z,16.77
2022-08-05T23:28:06.912Z,16.77
2022-08-05T23:30:40.174Z,16.77
2022-08-05T23:33:16.207Z,16.73
2022-08-05T23:35:51.624Z,16.68
2022-08-05T23:38:21.950Z,16.64
2022-08-05T23:40:50.573Z,16.58
2022-08-05T23:43:24.983Z,16.53
2022-08-05T23:46:21.105Z,16.47
2022-08-05T23:49:00.895Z,16.44
2022-08-05T23:51:46.566Z,16.39
2022-08-05T23:54:25.103Z,16.30
2022-08-05T23:57:03.187Z,16.25
